Flight Track Log - Related Links

Times and Time Zones

All times are in EST time to prevent confusion due to time zone crossing. See the EJA929 flight status page for this flight to view local times or setup timezone preferences in your user account.

Time Position Orientation Groundspeed Altitude Reporting Facility
EST Latitude Longitude Course Direction KTS MPH feet Rate Location/Type
Tue 05:38:21 PM 36.0750 -115.1633 282° West 176 203 3,300  Level Los Angeles Center
Tue 05:39:58 PM 36.0958 -115.2839 282° West 253 291 7,300 2,429 Climbing Salt Lake Center
Tue 05:41:04 PM 36.1725 -115.2606 14° North 269 310 9,900 1,781 Climbing Los Angeles Center
Tue 05:42:06 PM 36.1958 -115.1606 74° East 324 373 11,100 1,645 Climbing Los Angeles Center
Tue 05:43:08 PM 36.1972 -115.0342 89° East 368 423 13,300 2,177 Climbing Los Angeles Center
Tue 05:44:10 PM 36.1986 -114.9014 89° East 384 442 15,600 2,304 Climbing Los Angeles Center
Tue 05:45:13 PM 36.2183 -114.7747 79° East 400 460 18,100 2,640 Climbing Los Angeles Center
Tue 05:46:15 PM 36.3175 -114.6661 41° Northeast 401 461 21,100 2,565 Climbing Los Angeles Center
Tue 05:47:17 PM 36.4092 -114.5794 37° Northeast 412 474 23,400 2,371 Climbing Los Angeles Center
Tue 05:48:19 PM 36.5028 -114.4908 37° Northeast 422 486 26,000 2,129 Climbing Los Angeles Center
Tue 05:49:21 PM 36.6056 -114.4053 34° Northeast 441 507 27,800 1,790 Climbing Los Angeles Center
Tue 05:50:23 PM 36.7147 -114.3208 32° Northeast 459 528 29,700 1,500 Climbing Los Angeles Center
Tue 05:51:25 PM 36.8300 -114.2325 32° Northeast 483 556 30,900 629 Climbing Los Angeles Center
Tue 05:52:27 PM 36.9783 -114.1172 32° Northeast 521 600 31,000 48 Climbing Los Angeles Center
Tue 05:53:30 PM 37.1039 -114.0200 32° Northeast 531 611 31,000  Level Los Angeles Center
Tue 05:54:32 PM 37.2286 -113.9217 32° Northeast 531 611 31,000  Level Los Angeles Center
Tue 05:55:34 PM 37.3603 -113.8172 32° Northeast 530 610 31,000  Level Los Angeles Center
Tue 05:56:36 PM 37.4858 -113.7181 32° Northeast 531 611 31,000  Level Los Angeles Center
Tue 05:57:38 PM 37.6111 -113.6175 32° Northeast 531 611 31,000  Level Los Angeles Center
Tue 05:58:28 PM 37.7125 -113.5378 32° Northeast 535 616 31,000 -216 Level Salt Lake Center
Tue 05:59:29 PM 37.8392 -113.4361 32° Northeast 535 616 30,600 -488 Descending Salt Lake Center
Tue 06:00:31 PM 37.9647 -113.3356 32° Northeast 531 611 30,000 -290 Descending Salt Lake Center
Tue 06:01:33 PM 38.1150 -113.2150 32° Northeast 529 609 30,000  Level Salt Lake Center
Tue 06:02:34 PM 38.2411 -113.1144 32° Northeast 531 611 30,000  Level Salt Lake Center
Tue 06:03:36 PM 38.3669 -113.0142 32° Northeast 532 612 30,000  Level Salt Lake Center
Tue 06:04:37 PM 38.5033 -112.9386 23° Northeast 533 613 30,000  Level Salt Lake Center
Tue 06:05:39 PM 38.6375 -112.8689 22° Northeast 525 604 30,000 -98 Level Salt Lake Center
Tue 06:06:40 PM 38.7622 -112.8019 23° Northeast 497 572 29,800 -585 Descending Salt Lake Center
Tue 06:07:42 PM 38.8856 -112.7356 23° Northeast 484 557 28,800 -976 Descending Salt Lake Center
Tue 06:08:43 PM 39.0056 -112.6692 23° Northeast 473 544 27,800 -976 Descending Salt Lake Center
Tue 06:09:45 PM 39.1261 -112.6022 23° Northeast 471 542 26,800 -1,024 Descending Salt Lake Center
Tue 06:10:46 PM 39.2431 -112.5381 23° Northeast 423 487 25,700 -1,024 Descending Salt Lake Center
Tue 06:11:48 PM 39.3450 -112.4861 22° Northeast 398 458 24,700 -1,317 Descending Salt Lake Center
Tue 06:12:49 PM 39.4494 -112.4236 25° Northeast 410 472 23,000 -2,000 Descending Salt Lake Center
Tue 06:13:51 PM 39.5683 -112.3553 24° Northeast 387 445 20,600 -2,146 Descending Salt Lake Center
Tue 06:14:52 PM 39.6647 -112.2983 24° Northeast 381 438 18,600 -1,902 Descending Salt Lake Center
Tue 06:15:54 PM 39.7592 -112.2439 24° Northeast 373 429 16,700 -1,707 Descending Salt Lake Center
Tue 06:16:55 PM 39.8506 -112.1897 24° Northeast 362 417 15,100 -828 Descending Salt Lake Center
Tue 06:17:50 PM 39.9286 -112.1567 18° North 294 338 15,100  Level Salt Lake Center
Tue 06:17:57 PM 39.9286 -112.1464 90° East 300 345 15,100 -122 Level Salt Lake Center
Tue 06:18:39 PM 40.0019 -112.1125 19° North 376 433 15,000 -98 Descending Salt Lake Center
Tue 06:18:58 PM 40.0189 -112.0908 44° Northeast 366 421 15,000 -1,672 Level Salt Lake Center
Tue 06:19:40 PM 40.0936 -112.0539 21° North 364 419 13,300 -2,032 Descending Salt Lake Center
Tue 06:20:00 PM 40.1100 -112.0364 39° Northeast 360 414 12,900 -2,459 Descending Salt Lake Center
Tue 06:20:41 PM 40.1786 -112.0056 19° North 325 374 10,800 -2,459 Descending Salt Lake Center
Tue 06:21:01 PM 40.1953 -111.9922 31° Northeast 330 380 10,400 -889 Descending Salt Lake Center
Tue 06:21:35 PM 40.2558 -111.9825 North 301 346 10,000 -387 Descending Salt Lake Center
Tue 06:22:03 PM 40.2914 -111.9642 21° North 291 335 10,000  Level Salt Lake Center
Tue 06:22:30 PM 40.3247 -111.9592 North 276 318 10,000  Level Salt Lake Center
Tue 06:23:04 PM 40.3642 -111.9417 19° North 269 310 10,000 98 Level Salt Lake Center
Tue 06:23:31 PM 40.3953 -111.9353 North 260 299 10,100  Climbing Salt Lake Center
Tue 06:24:06 PM 40.4350 -111.9192 17° North 263 303 10,000 -76 Descending Salt Lake Center
Tue 06:24:50 PM 40.4833 -111.9336 347° North 231 266 10,000 -98 Level Salt Lake Center
Tue 06:25:07 PM 40.4989 -111.9308 North 228 262 9,900 -1,100 Descending Salt Lake Center
Tue 06:25:50 PM 40.5469 -111.9403 352° North 217 250 8,900 -1,258 Descending Salt Lake Center
Tue 06:26:09 PM 40.5594 -111.9381 North 216 249 8,600 -1,527 Descending Salt Lake Center
Tue 06:26:45 PM 40.5975 -111.9458 351° North 209 241 7,500 -1,574 Descending Salt Lake Center
Tue 06:27:10 PM 40.6158 -111.9450 North 206 237 7,000 -1,444 Descending Salt Lake Center
Tue 06:27:39 PM 40.6503 -111.9506 353° North 199 229 6,200 -787 Descending Salt Lake Center
Tue 06:28:11 PM 40.6703 -111.9508 359° North 196 226 6,200 -393 Level Salt Lake Center
Tue 06:28:40 PM 40.6967 -111.9572 350° North 163 188 5,800 -677 Descending Salt Lake Center
Tue 06:29:13 PM 40.7119 -111.9547 North 155 178 5,500 -778 Descending Salt Lake Center
Tue 06:29:34 PM 40.7322 -111.9622 344° North 140 161 5,100 -1,143 Descending Salt Lake Center

Login

Don't have an account? Register now (free) for customized features, flight alerts, and more!